Time;durP1;ratioP1;P1;durP2;ratioP2;P2;SDS_P1;SDS_P2;PMS_P1;PMS_P2;Temp;Humidity;BMP_temperature;BMP_pressure;BME280_temperature;BME280_humidity;BME280_pressure;Samples;Min_cycle;Max_cycle;Signal;HPM_P1;HPM_P2
2022/05/11 00:00:07;;;;;;;10.37;9.47;;;16.50;94.80;;;;;;5100307;28;20436;-45
2022/05/11 00:02:33;;;;;;;10.80;9.90;;;16.40;94.80;;;;;;5100269;28;20198;-45
2022/05/11 00:04:58;;;;;;;10.37;9.47;;;16.40;95.00;;;;;;5100008;28;20432;-45
2022/05/11 00:07:24;;;;;;;10.70;9.83;;;16.40;95.10;;;;;;5099558;28;20506;-45
2022/05/11 00:09:50;;;;;;;9.20;8.50;;;16.30;95.00;;;;;;5099103;28;20177;-45
2022/05/11 00:12:16;;;;;;;9.77;8.97;;;16.30;95.00;;;;;;5099781;28;20425;-45
2022/05/11 00:14:41;;;;;;;10.17;9.37;;;16.20;94.90;;;;;;5099632;28;20209;-45
2022/05/11 00:17:07;;;;;;;9.20;8.50;;;16.20;95.00;;;;;;5081484;28;20246;-45
2022/05/11 00:19:33;;;;;;;8.93;8.23;;;16.20;94.80;;;;;;5099767;28;20392;-45
2022/05/11 00:21:59;;;;;;;9.13;8.43;;;16.20;94.80;;;;;;5099843;28;20176;-45
2022/05/11 00:24:26;;;;;;;9.20;8.40;;;16.20;94.60;;;;;;5081513;28;20467;-45
2022/05/11 00:26:51;;;;;;;8.37;7.67;;;16.20;94.50;;;;;;5098363;28;20270;-45
2022/05/11 00:29:17;;;;;;;9.47;8.57;;;16.20;94.40;;;;;;5099629;28;20583;-45
2022/05/11 00:31:43;;;;;;;9.83;9.00;;;16.20;94.80;;;;;;5099619;28;20474;-45
2022/05/11 00:34:09;;;;;;;9.47;8.67;;;16.20;94.70;;;;;;5099267;28;20570;-45
2022/05/11 00:36:35;;;;;;;8.83;8.23;;;16.30;94.60;;;;;;5092016;28;20460;-45
2022/05/11 00:39:02;;;;;;;9.73;8.93;;;16.20;94.70;;;;;;5087945;28;20196;-45
2022/05/11 00:41:27;;;;;;;9.50;8.70;;;16.20;95.00;;;;;;5079094;28;20435;-45
2022/05/11 00:43:57;;;;;;;9.50;8.70;;;16.10;94.90;;;;;;5079298;28;20456;-45
2022/05/11 00:46:26;;;;;;;9.97;9.17;;;16.10;95.10;;;;;;5084855;28;20504;-45
2022/05/11 00:51:50;;;;;;;10.10;9.30;;;16.00;95.20;;;;;;5099051;28;20414;-49
2022/05/11 00:54:18;;;;;;;8.90;8.20;;;16.00;95.50;;;;;;5081074;28;20648;-45
2022/05/11 00:56:51;;;;;;;9.00;8.30;;;15.90;95.60;;;;;;5080105;28;20875;-45
2022/05/11 00:59:24;;;;;;;9.10;8.30;;;15.90;95.80;;;;;;5098287;28;20434;-45
2022/05/11 01:01:51;;;;;;;10.27;9.40;;;15.80;95.90;;;;;;5080518;28;20407;-45
2022/05/11 01:04:19;;;;;;;9.37;8.57;;;15.80;96.00;;;;;;5079554;28;20521;-45
2022/05/11 01:06:45;;;;;;;9.67;8.87;;;15.80;96.10;;;;;;5095679;28;20525;-45
2022/05/11 01:09:12;;;;;;;9.37;8.63;;;15.70;96.20;;;;;;5079566;28;20546;-45
2022/05/11 01:11:44;;;;;;;10.77;9.87;;;15.60;96.30;;;;;;5098196;28;20181;-45
2022/05/11 01:14:13;;;;;;;10.00;9.20;;;15.60;96.50;;;;;;5080125;28;20478;-45
2022/05/11 01:16:40;;;;;;;10.07;9.27;;;15.60;96.60;;;;;;5097476;28;20773;-45
2022/05/11 01:19:07;;;;;;;11.40;10.40;;;15.50;96.60;;;;;;5098258;28;20534;-45
2022/05/11 01:21:43;;;;;;;10.97;9.97;;;15.50;96.70;;;;;;5098513;28;20416;-45
2022/05/11 01:24:35;;;;;;;10.90;10.00;;;15.40;96.60;;;;;;5080360;28;20427;-45
2022/05/11 01:27:25;;;;;;;10.87;9.93;;;15.40;96.80;;;;;;5080627;28;20570;-45
2022/05/11 01:29:52;;;;;;;10.60;9.80;;;15.40;97.00;;;;;;5098269;28;20523;-44
2022/05/11 01:32:19;;;;;;;12.07;10.97;;;15.30;97.00;;;;;;5098644;28;20429;-45
2022/05/11 01:34:45;;;;;;;11.50;10.53;;;15.30;97.10;;;;;;5097573;28;20467;-45
2022/05/11 01:37:10;;;;;;;9.80;8.90;;;15.20;97.20;;;;;;5080816;28;20464;-45
2022/05/11 01:39:36;;;;;;;10.30;9.30;;;15.20;97.30;;;;;;5098015;28;20835;-45
2022/05/11 01:42:02;;;;;;;10.13;9.37;;;15.10;97.40;;;;;;5098494;28;20636;-45
2022/05/11 01:44:28;;;;;;;10.27;9.47;;;15.10;97.40;;;;;;5098040;28;20188;-45
2022/05/11 01:47:09;;;;;;;9.00;8.20;;;15.10;97.40;;;;;;5097955;28;20426;-45
2022/05/11 01:49:35;;;;;;;10.37;9.40;;;15.10;97.50;;;;;;5097687;28;20196;-45
2022/05/11 01:52:00;;;;;;;10.27;9.47;;;15.10;97.40;;;;;;5098101;28;20437;-45
2022/05/11 01:54:26;;;;;;;10.73;9.83;;;15.10;97.30;;;;;;5096858;28;20215;-45
2022/05/11 01:56:51;;;;;;;9.97;9.10;;;15.10;97.30;;;;;;5096599;28;20170;-45
2022/05/11 01:59:17;;;;;;;10.53;9.30;;;15.10;97.40;;;;;;5096373;28;20170;-45
2022/05/11 02:01:43;;;;;;;10.83;9.73;;;15.10;97.50;;;;;;5097225;28;20177;-45
2022/05/11 02:09:41;;;;;;;10.93;10.03;;;15.00;97.60;;;;;;5097379;28;20422;-45
2022/05/11 02:12:09;;;;;;;10.93;10.03;;;15.00;97.70;;;;;;5080000;28;20412;-45
2022/05/11 02:14:35;;;;;;;10.00;9.20;;;15.00;97.80;;;;;;5079676;28;20476;-45
2022/05/11 02:17:01;;;;;;;9.87;9.07;;;14.90;98.00;;;;;;5097302;28;20476;-45
2022/05/11 02:19:28;;;;;;;10.70;9.73;;;14.90;97.80;;;;;;5097560;28;20819;-45
2022/05/11 02:21:54;;;;;;;10.07;9.23;;;14.90;97.80;;;;;;5096363;28;20800;-45
2022/05/11 02:24:20;;;;;;;9.87;9.10;;;14.90;97.80;;;;;;5096557;28;20527;-45
2022/05/11 02:26:45;;;;;;;9.50;8.80;;;15.00;97.90;;;;;;5097576;28;20578;-45
2022/05/11 02:29:11;;;;;;;9.20;8.47;;;14.90;97.80;;;;;;5097547;28;20175;-45
2022/05/11 02:31:37;;;;;;;10.57;9.77;;;14.90;97.70;;;;;;5097474;28;20234;-45
2022/05/11 02:34:05;;;;;;;10.60;9.70;;;15.00;97.80;;;;;;5096879;28;20177;-45
2022/05/11 02:36:32;;;;;;;10.03;9.13;;;15.00;97.80;;;;;;5097538;28;20234;-45
2022/05/11 02:38:58;;;;;;;9.93;8.93;;;15.00;97.80;;;;;;5096769;28;20427;-45
2022/05/11 02:41:23;;;;;;;9.77;9.00;;;15.00;97.90;;;;;;5097717;28;20507;-45
2022/05/11 02:43:49;;;;;;;10.33;9.53;;;15.00;97.90;;;;;;5096985;28;20249;-45
2022/05/11 02:46:15;;;;;;;11.23;9.40;;;15.00;97.90;;;;;;5099544;28;20239;-45
2022/05/11 02:48:41;;;;;;;9.70;8.90;;;15.00;97.90;;;;;;5101194;28;20187;-45
2022/05/11 02:51:07;;;;;;;9.87;9.00;;;15.00;97.90;;;;;;5101059;28;20224;-45
2022/05/11 02:53:33;;;;;;;10.00;9.10;;;15.10;98.00;;;;;;5101108;28;20482;-45
2022/05/11 02:55:59;;;;;;;9.57;8.80;;;15.10;97.90;;;;;;5101158;28;20873;-45
2022/05/11 02:58:28;;;;;;;9.50;8.60;;;15.20;97.70;;;;;;5101485;28;20171;-45
2022/05/11 03:00:57;;;;;;;10.33;9.53;;;15.20;97.60;;;;;;5101323;28;20422;-45
2022/05/11 03:03:23;;;;;;;9.90;9.20;;;15.30;97.50;;;;;;5100527;28;20666;-45
2022/05/11 03:05:52;;;;;;;9.30;8.50;;;15.30;97.40;;;;;;5100771;28;20419;-45
2022/05/11 03:08:18;;;;;;;10.57;9.67;;;15.30;97.40;;;;;;5101227;28;20422;-45
2022/05/11 03:10:44;;;;;;;9.47;8.67;;;15.30;97.30;;;;;;5100559;28;20467;-45
2022/05/11 03:13:10;;;;;;;9.10;8.40;;;15.30;97.20;;;;;;5099903;28;20443;-45
2022/05/11 03:15:36;;;;;;;9.43;8.63;;;15.30;97.20;;;;;;5099985;28;20460;-45
2022/05/11 03:18:03;;;;;;;10.47;9.60;;;15.30;97.10;;;;;;5100317;28;20508;-45
2022/05/11 03:20:28;;;;;;;11.23;9.30;;;15.30;97.10;;;;;;5082602;28;20415;-45
2022/05/11 03:22:55;;;;;;;10.63;9.60;;;15.30;97.10;;;;;;5099570;28;20491;-45
2022/05/11 03:25:21;;;;;;;10.30;9.33;;;15.30;97.00;;;;;;5099256;28;20227;-45
2022/05/11 03:27:47;;;;;;;11.10;10.10;;;15.30;97.10;;;;;;5099306;28;20418;-45
2022/05/11 03:30:14;;;;;;;10.30;9.40;;;15.30;97.00;;;;;;5098660;28;20530;-45
2022/05/11 03:35:24;;;;;;;9.43;8.63;;;15.40;96.50;;;;;;5097909;28;20470;-45
2022/05/11 03:37:50;;;;;;;10.43;9.53;;;15.40;96.20;;;;;;5099123;28;20415;-45
2022/05/11 03:40:15;;;;;;;9.10;8.40;;;15.40;96.30;;;;;;5098825;28;20510;-45
2022/05/11 03:42:42;;;;;;;9.60;8.80;;;15.30;96.40;;;;;;5099473;28;20245;-45
2022/05/11 03:45:10;;;;;;;9.97;9.07;;;15.30;96.80;;;;;;5098979;28;20184;-45
2022/05/11 03:47:36;;;;;;;10.00;9.30;;;15.30;96.60;;;;;;5098841;28;20416;-45
2022/05/11 03:50:02;;;;;;;11.20;10.27;;;15.30;96.50;;;;;;5098650;28;20517;-45
2022/05/11 03:52:28;;;;;;;10.27;9.47;;;15.30;96.50;;;;;;5098179;28;20182;-45
2022/05/11 03:54:53;;;;;;;9.70;8.90;;;15.20;96.50;;;;;;5081042;28;20532;-45
2022/05/11 03:57:20;;;;;;;8.40;7.70;;;15.20;96.60;;;;;;5097550;28;20179;-45
2022/05/11 03:59:46;;;;;;;9.60;8.80;;;15.20;96.60;;;;;;5098461;28;20185;-45
2022/05/11 04:02:12;;;;;;;9.63;8.93;;;15.10;96.70;;;;;;5098882;28;20696;-45
2022/05/11 04:04:37;;;;;;;11.20;10.20;;;15.10;96.70;;;;;;5098681;28;20185;-45
2022/05/11 04:07:03;;;;;;;9.97;9.17;;;15.20;96.60;;;;;;5079810;28;20341;-45
2022/05/11 04:09:29;;;;;;;9.40;8.70;;;15.10;96.50;;;;;;5099082;28;20188;-45
2022/05/11 04:11:54;;;;;;;9.10;8.40;;;15.10;96.60;;;;;;5099457;28;20417;-45
2022/05/11 04:14:20;;;;;;;9.67;8.87;;;15.20;96.60;;;;;;5099331;28;20210;-45
2022/05/11 04:16:47;;;;;;;8.93;8.17;;;15.10;96.50;;;;;;5097638;28;20169;-45
2022/05/11 04:19:13;;;;;;;10.07;9.20;;;15.10;96.50;;;;;;5098014;28;20180;-45
2022/05/11 04:21:39;;;;;;;10.20;8.70;;;15.10;96.80;;;;;;5097031;28;20841;-45
2022/05/11 04:24:05;;;;;;;8.90;8.10;;;15.10;96.40;;;;;;5097086;28;20176;-45
2022/05/11 04:26:32;;;;;;;9.50;8.50;;;15.10;96.30;;;;;;5097032;28;20622;-45
2022/05/11 04:28:57;;;;;;;9.90;9.00;;;15.20;96.20;;;;;;5095697;28;20627;-45
2022/05/11 04:31:23;;;;;;;8.90;8.20;;;15.20;96.10;;;;;;5097670;28;20539;-45
2022/05/11 04:33:50;;;;;;;9.63;8.83;;;15.20;96.00;;;;;;5080266;28;20266;-45
2022/05/11 04:36:16;;;;;;;9.23;8.43;;;15.30;95.90;;;;;;5098929;28;20493;-45
2022/05/11 04:38:42;;;;;;;9.10;8.40;;;15.40;95.60;;;;;;5098570;28;20518;-45
2022/05/11 04:41:08;;;;;;;9.37;8.30;;;15.40;95.60;;;;;;5098276;28;20944;-45
2022/05/11 04:43:35;;;;;;;9.73;8.83;;;15.30;95.60;;;;;;5080764;28;20185;-45
2022/05/11 04:46:00;;;;;;;9.63;8.90;;;15.30;95.50;;;;;;5096026;28;20525;-45
2022/05/11 04:48:27;;;;;;;9.03;8.33;;;15.40;95.50;;;;;;5096987;28;20186;-45
2022/05/11 04:50:58;;;;;;;9.10;8.20;;;15.30;95.60;;;;;;5097815;28;20173;-45
2022/05/11 04:53:23;;;;;;;9.03;8.23;;;15.40;95.60;;;;;;5096856;28;20518;-44
2022/05/11 04:55:49;;;;;;;9.20;8.50;;;15.40;95.70;;;;;;5095601;28;20555;-44
2022/05/11 04:58:15;;;;;;;9.03;8.33;;;15.40;95.70;;;;;;5093489;28;20169;-45
2022/05/11 05:00:41;;;;;;;9.70;8.90;;;15.40;96.20;;;;;;5093854;28;20242;-45
2022/05/11 05:03:11;;;;;;;9.67;8.90;;;15.40;95.80;;;;;;5094935;28;20416;-45
2022/05/11 05:05:38;;;;;;;9.30;8.50;;;15.30;95.90;;;;;;5095530;28;20205;-45
2022/05/11 05:08:03;;;;;;;9.40;8.60;;;15.40;95.90;;;;;;5076480;28;20408;-45
2022/05/11 05:10:29;;;;;;;9.57;8.77;;;15.40;95.70;;;;;;5075403;28;20847;-45
2022/05/11 05:13:00;;;;;;;9.70;8.80;;;15.50;95.70;;;;;;5091360;28;20445;-45
2022/05/11 05:15:26;;;;;;;9.37;8.57;;;15.50;95.70;;;;;;5090633;28;20471;-45
2022/05/11 05:17:52;;;;;;;8.87;8.17;;;15.50;95.60;;;;;;5091322;28;20412;-45
2022/05/11 05:20:18;;;;;;;9.67;8.87;;;15.60;95.70;;;;;;5090749;28;20264;-45
2022/05/11 05:22:44;;;;;;;10.23;9.33;;;15.70;95.60;;;;;;5091829;28;20508;-45
2022/05/11 05:25:10;;;;;;;9.80;9.00;;;15.80;95.60;;;;;;5092313;28;20705;-45
2022/05/11 05:27:36;;;;;;;9.13;8.43;;;15.80;95.40;;;;;;5090978;28;20208;-45
2022/05/11 05:32:46;;;;;;;9.90;9.10;;;15.90;95.10;;;;;;5090076;28;20242;-45
2022/05/11 05:35:16;;;;;;;9.27;8.50;;;16.00;95.00;;;;;;5092394;28;20478;-45
2022/05/11 05:37:43;;;;;;;9.70;8.80;;;16.10;95.00;;;;;;5093089;28;20166;-45
2022/05/11 05:40:09;;;;;;;9.43;8.73;;;16.20;94.90;;;;;;5093938;28;20860;-45
2022/05/11 05:42:35;;;;;;;10.20;9.30;;;16.40;94.60;;;;;;5092247;28;20424;-45
2022/05/11 05:45:01;;;;;;;8.77;8.07;;;16.40;94.40;;;;;;5093797;28;20560;-45
2022/05/11 05:47:27;;;;;;;9.53;8.57;;;16.60;94.20;;;;;;5073897;28;20488;-45
2022/05/11 05:49:53;;;;;;;8.03;7.33;;;16.60;94.10;;;;;;5090014;28;20197;-46
2022/05/11 05:52:21;;;;;;;8.67;7.97;;;16.70;94.10;;;;;;5091961;28;20239;-45
2022/05/11 05:54:47;;;;;;;9.73;8.93;;;16.80;94.10;;;;;;5092675;28;20474;-45
2022/05/11 05:57:14;;;;;;;10.63;9.70;;;16.80;94.20;;;;;;5093769;28;20434;-45
2022/05/11 05:59:40;;;;;;;9.87;8.87;;;17.00;93.90;;;;;;5077608;28;20430;-45
2022/05/11 06:02:12;;;;;;;9.80;9.00;;;17.10;93.70;;;;;;5073936;28;20437;-45
2022/05/11 06:04:40;;;;;;;10.10;9.20;;;17.20;93.70;;;;;;5080489;28;20250;-45
2022/05/11 06:07:05;;;;;;;9.00;8.30;;;17.40;93.40;;;;;;5071245;28;20443;-45
2022/05/11 06:09:31;;;;;;;9.00;8.30;;;17.50;93.30;;;;;;5071622;28;20497;-45
2022/05/11 06:11:57;;;;;;;8.77;8.07;;;17.60;93.20;;;;;;5070584;28;20196;-45
2022/05/11 06:14:23;;;;;;;11.03;9.03;;;17.70;92.90;;;;;;5071433;28;20224;-45
2022/05/11 06:16:49;;;;;;;8.20;7.40;;;17.80;92.60;;;;;;5073788;28;20249;-45
2022/05/11 06:19:15;;;;;;;9.27;8.47;;;17.90;92.70;;;;;;5075430;28;20265;-45
2022/05/11 06:21:41;;;;;;;8.40;7.70;;;18.00;92.40;;;;;;5078896;28;20500;-45
2022/05/11 06:24:07;;;;;;;8.17;7.57;;;18.10;92.30;;;;;;5078289;28;20365;-46
2022/05/11 06:26:32;;;;;;;8.63;7.83;;;18.30;91.60;;;;;;5093712;28;20186;-45
2022/05/11 06:28:58;;;;;;;8.30;7.27;;;18.50;91.30;;;;;;5097181;28;20439;-45
2022/05/11 06:31:24;;;;;;;7.90;7.30;;;18.50;91.00;;;;;;5096660;28;20533;-45
2022/05/11 06:33:51;;;;;;;8.40;7.80;;;18.60;90.90;;;;;;5098262;28;20276;-45
2022/05/11 06:36:17;;;;;;;8.03;7.27;;;18.70;90.50;;;;;;5097821;28;20586;-46
2022/05/11 06:38:43;;;;;;;8.33;7.60;;;18.80;90.60;;;;;;5098887;28;21072;-45
2022/05/11 06:41:16;;;;;;;8.10;7.40;;;19.00;90.20;;;;;;5098170;28;20243;-45
2022/05/11 06:43:41;;;;;;;7.53;6.93;;;19.00;90.00;;;;;;5098818;28;20430;-45
2022/05/11 06:46:07;;;;;;;8.03;7.40;;;19.10;89.50;;;;;;5098620;28;20427;-45
2022/05/11 06:48:33;;;;;;;8.37;7.57;;;19.30;88.60;;;;;;5080449;28;20424;-45
2022/05/11 06:50:59;;;;;;;7.13;6.60;;;19.40;88.50;;;;;;5098401;28;20575;-45
2022/05/11 06:53:25;;;;;;;7.93;7.33;;;19.60;87.70;;;;;;5096577;28;20182;-44
2022/05/11 07:01:19;;;;;;;7.30;6.60;;;19.60;86.20;;;;;;5095136;28;20421;-46
2022/05/11 07:03:44;;;;;;;6.57;6.07;;;19.80;85.70;;;;;;5097686;28;20422;-48
2022/05/11 07:06:11;;;;;;;8.03;7.43;;;19.90;86.30;;;;;;5097425;28;20189;-48
2022/05/11 07:08:42;;;;;;;7.47;6.87;;;20.20;85.40;;;;;;5098365;28;20472;-47
2022/05/11 07:13:56;;;;;;;7.50;6.90;;;20.40;84.00;;;;;;5099307;28;20428;-48
2022/05/11 07:16:23;;;;;;;6.77;6.17;;;20.50;83.40;;;;;;5080234;28;20535;-47
2022/05/11 07:18:49;;;;;;;7.53;6.93;;;20.70;82.70;;;;;;5097581;28;20429;-48
2022/05/11 07:21:15;;;;;;;6.77;6.27;;;20.70;82.30;;;;;;5099037;28;20423;-49
2022/05/11 07:23:41;;;;;;;7.43;6.73;;;20.90;82.50;;;;;;5095987;28;20493;-48
2022/05/11 07:26:07;;;;;;;7.20;6.60;;;21.10;81.40;;;;;;5097092;28;20186;-48
2022/05/11 07:28:32;;;;;;;7.13;6.63;;;21.20;80.50;;;;;;5080228;28;20433;-49
2022/05/11 07:30:58;;;;;;;6.50;6.00;;;21.40;80.10;;;;;;5097997;28;20229;-49
2022/05/11 07:33:25;;;;;;;6.27;5.77;;;21.50;79.30;;;;;;5096917;28;20206;-48
2022/05/11 07:35:50;;;;;;;6.63;6.13;;;21.50;78.20;;;;;;5095658;28;20461;-48
2022/05/11 07:38:18;;;;;;;7.13;6.43;;;21.60;77.40;;;;;;5097079;28;20691;-48
2022/05/11 07:40:44;;;;;;;6.83;6.23;;;21.60;77.80;;;;;;5077673;28;20173;-48
2022/05/11 07:43:11;;;;;;;6.70;6.20;;;21.70;78.00;;;;;;5096471;28;20428;-47
2022/05/11 07:45:38;;;;;;;7.00;6.40;;;21.90;78.10;;;;;;5098315;28;20450;-47
2022/05/11 07:48:04;;;;;;;6.40;5.90;;;22.20;75.80;;;;;;5099039;28;20412;-48
2022/05/11 07:50:31;;;;;;;6.33;5.83;;;22.30;75.10;;;;;;5098023;28;20423;-47
2022/05/11 07:52:57;;;;;;;7.03;6.43;;;22.40;74.00;;;;;;5098893;28;20720;-48
2022/05/11 07:55:25;;;;;;;7.60;6.80;;;22.40;74.00;;;;;;5079540;28;20881;-47
2022/05/11 08:00:37;;;;;;;7.27;6.67;;;22.80;73.30;;;;;;5097899;28;20651;-47
2022/05/11 08:03:03;;;;;;;6.90;6.20;;;22.70;71.60;;;;;;5097755;28;20408;-47
2022/05/11 08:05:30;;;;;;;7.50;6.90;;;22.80;71.60;;;;;;5098361;28;20427;-48
2022/05/11 08:07:58;;;;;;;6.60;5.90;;;22.90;69.80;;;;;;5097017;28;20482;-48
2022/05/11 08:10:35;;;;;;;6.93;6.23;;;23.10;70.20;;;;;;5080629;28;20630;-48
2022/05/11 08:13:05;;;;;;;6.60;6.00;;;23.30;68.70;;;;;;5098141;28;20451;-48
2022/05/11 08:15:32;;;;;;;6.83;6.13;;;23.50;67.20;;;;;;5096643;28;20477;-49
2022/05/11 08:17:59;;;;;;;6.33;5.80;;;23.60;67.10;;;;;;5080169;28;20858;-48
2022/05/11 08:20:28;;;;;;;6.10;5.60;;;23.50;66.00;;;;;;5095912;28;20459;-48
2022/05/11 08:22:55;;;;;;;7.57;6.87;;;23.50;67.00;;;;;;5094286;28;20519;-49
2022/05/11 08:25:24;;;;;;;7.03;6.20;;;23.40;66.20;;;;;;5095195;28;20431;-49
2022/05/11 08:27:51;;;;;;;6.47;5.97;;;23.50;66.20;;;;;;5095836;28;20432;-48
2022/05/11 08:35:49;;;;;;;7.37;6.67;;;23.90;66.60;;;;;;5095958;28;20571;-48
2022/05/11 08:38:16;;;;;;;6.27;5.70;;;23.90;65.80;;;;;;5096318;28;20418;-48
2022/05/11 08:41:11;;;;;;;7.57;6.97;;;24.20;65.30;;;;;;5096905;28;20448;-48
2022/05/11 08:43:38;;;;;;;6.20;5.70;;;24.30;64.10;;;;;;5095777;28;20488;-48
2022/05/11 08:46:22;;;;;;;6.70;6.10;;;24.40;63.90;;;;;;5078616;28;20413;-48
2022/05/11 08:48:59;;;;;;;7.80;7.10;;;24.70;64.40;;;;;;5096820;28;20426;-48
2022/05/11 08:51:39;;;;;;;7.10;6.50;;;25.10;62.40;;;;;;5097415;28;20483;-51
2022/05/11 08:54:35;;;;;;;7.43;6.73;;;25.50;61.20;;;;;;5080272;28;20424;-48
2022/05/11 08:57:08;;;;;;;7.63;7.07;;;25.60;60.20;;;;;;5079038;28;20427;-48
2022/05/11 08:59:34;;;;;;;8.57;7.27;;;25.80;60.10;;;;;;5078429;28;20445;-48
2022/05/11 09:02:22;;;;;;;7.13;6.63;;;25.80;60.20;;;;;;5078208;28;20855;-48
2022/05/11 09:04:52;;;;;;;11.10;7.57;;;25.80;60.00;;;;;;5062579;28;20476;-48
2022/05/11 09:07:18;;;;;;;7.33;6.63;;;25.90;59.80;;;;;;5095946;28;20403;-48
2022/05/11 09:09:44;;;;;;;8.40;7.60;;;26.00;59.20;;;;;;5095013;28;20423;-48
2022/05/11 09:12:11;;;;;;;7.77;7.07;;;25.80;58.10;;;;;;5096773;28;20405;-48
2022/05/11 09:14:49;;;;;;;7.90;7.30;;;25.60;58.60;;;;;;5078628;28;20579;-50
2022/05/11 09:17:21;;;;;;;8.40;7.80;;;25.70;58.70;;;;;;5098539;28;20427;-48
2022/05/11 09:20:07;;;;;;;7.90;7.23;;;25.70;58.20;;;;;;5098437;28;20495;-48
2022/05/11 09:22:37;;;;;;;7.90;7.20;;;26.00;58.00;;;;;;5079947;28;20805;-48
2022/05/11 09:25:20;;;;;;;7.50;7.00;;;25.90;57.90;;;;;;5097947;28;20448;-48
2022/05/11 09:27:46;;;;;;;9.80;7.77;;;26.10;57.40;;;;;;5098340;28;20833;-49
2022/05/11 09:30:24;;;;;;;8.10;7.40;;;26.30;57.20;;;;;;5097242;28;20433;-49
2022/05/11 09:33:14;;;;;;;7.70;7.10;;;26.00;56.20;;;;;;5097038;28;20198;-49
2022/05/11 09:35:40;;;;;;;8.37;7.77;;;26.30;57.00;;;;;;5079785;28;21114;-43
2022/05/11 09:38:21;;;;;;;8.07;7.27;;;26.40;55.90;;;;;;5097038;28;20418;-41
2022/05/11 09:40:53;;;;;;;8.13;7.53;;;26.30;55.60;;;;;;5097153;28;20412;-40
2022/05/11 09:43:31;;;;;;;7.93;7.43;;;26.30;55.70;;;;;;5096062;28;20500;-42
2022/05/11 09:45:57;;;;;;;8.47;7.70;;;26.50;55.40;;;;;;5077602;28;20858;-41
2022/05/11 09:48:31;;;;;;;8.40;7.70;;;26.60;55.00;;;;;;5078465;28;20414;-40
2022/05/11 09:51:19;;;;;;;7.50;6.93;;;26.90;54.70;;;;;;5096182;28;20191;-41
2022/05/11 09:54:33;;;;;;;8.10;7.50;;;27.00;54.60;;;;;;5095229;28;20775;-42
2022/05/11 09:57:01;;;;;;;8.10;7.50;;;27.20;54.00;;;;;;5019940;28;20482;-40
2022/05/11 09:59:38;;;;;;;6.97;6.37;;;26.90;52.80;;;;;;5079232;28;20785;-39
2022/05/11 10:02:10;;;;;;;7.20;6.70;;;27.10;52.50;;;;;;5097366;28;20752;-41
2022/05/11 10:04:39;;;;;;;7.60;7.10;;;26.90;52.10;;;;;;5096860;28;20745;-40
2022/05/11 10:07:10;;;;;;;8.10;7.40;;;26.90;53.00;;;;;;5062644;28;20440;-39
2022/05/11 10:09:43;;;;;;;6.40;6.00;;;27.10;52.00;;;;;;5061584;28;20429;-39
2022/05/11 10:12:24;;;;;;;7.57;6.90;;;27.00;50.80;;;;;;5094994;28;20414;-39
2022/05/11 10:23:29;;;;;;;7.53;6.83;;;27.60;49.00;;;;;;5079304;28;20486;-40
2022/05/11 10:26:02;;;;;;;7.07;6.57;;;27.40;48.70;;;;;;5094465;28;20582;-39
2022/05/11 10:28:37;;;;;;;7.67;6.87;;;27.20;48.40;;;;;;5074689;28;20454;-40
2022/05/11 10:31:02;;;;;;;6.17;5.63;;;27.30;48.80;;;;;;5075891;28;20463;-43
2022/05/11 10:34:05;;;;;;;7.17;6.60;;;27.60;47.90;;;;;;5094224;28;20426;-42
2022/05/11 10:36:37;;;;;;;6.43;5.93;;;27.80;47.50;;;;;;5094153;28;20229;-39
2022/05/11 10:39:06;;;;;;;6.30;5.80;;;28.00;46.40;;;;;;5077605;28;20415;-42
2022/05/11 10:41:41;;;;;;;6.80;6.17;;;28.20;46.20;;;;;;5095433;28;20472;-41
2022/05/11 10:44:28;;;;;;;6.70;6.10;;;28.20;46.10;;;;;;5094967;28;20403;-42
2022/05/11 10:47:13;;;;;;;6.50;6.10;;;28.20;46.00;;;;;;5094715;28;20669;-42
2022/05/11 10:50:00;;;;;;;6.40;5.90;;;28.40;45.40;;;;;;5094917;28;20509;-43
2022/05/11 10:52:32;;;;;;;6.30;5.80;;;28.90;45.50;;;;;;5094468;28;20378;-44
2022/05/11 10:55:17;;;;;;;9.30;5.60;;;29.20;45.20;;;;;;5077976;28;20475;-44
2022/05/11 10:58:01;;;;;;;6.57;5.97;;;29.40;44.50;;;;;;5096322;28;20418;-41
2022/05/11 11:00:31;;;;;;;6.40;5.73;;;29.50;43.70;;;;;;5096378;28;20422;-41
2022/05/11 11:03:08;;;;;;;6.77;6.17;;;28.90;43.90;;;;;;5079152;28;20587;-42
2022/05/11 11:05:40;;;;;;;6.67;6.10;;;28.80;43.90;;;;;;5096361;28;20572;-41
2022/05/11 11:08:32;;;;;;;6.07;5.67;;;28.90;43.40;;;;;;5099499;28;20402;-47
2022/05/11 11:11:05;;;;;;;6.30;5.80;;;28.70;43.20;;;;;;5079156;28;20423;-43
2022/05/11 11:14:00;;;;;;;6.63;6.03;;;28.90;43.80;;;;;;5078806;28;20424;-40
2022/05/11 11:16:32;;;;;;;6.73;6.23;;;29.40;43.90;;;;;;5060840;28;20455;-45
2022/05/11 11:18:58;;;;;;;6.67;5.80;;;29.40;42.20;;;;;;5061124;28;20494;-41
2022/05/11 11:21:24;;;;;;;5.90;5.50;;;29.40;42.80;;;;;;5077881;28;20812;-41
2022/05/11 11:24:22;;;;;;;6.87;6.30;;;29.60;42.20;;;;;;5077887;28;20431;-43
2022/05/11 11:26:49;;;;;;;6.37;5.87;;;29.90;41.80;;;;;;5060811;28;20408;-41
2022/05/11 11:29:18;;;;;;;6.27;5.67;;;30.10;41.70;;;;;;5077227;28;20489;-41
2022/05/11 11:32:07;;;;;;;5.63;5.23;;;30.10;41.60;;;;;;5080404;28;20467;-40
2022/05/11 11:34:36;;;;;;;6.43;5.83;;;30.20;40.60;;;;;;5078624;28;20480;-42
2022/05/11 11:37:38;;;;;;;6.23;5.73;;;30.20;40.10;;;;;;5078509;28;20847;-41
2022/05/11 11:40:13;;;;;;;7.77;6.40;;;30.10;39.30;;;;;;4996010;28;20506;-42
2022/05/11 11:42:41;;;;;;;6.17;5.67;;;29.80;39.60;;;;;;5065758;28;20411;-43
2022/05/11 11:45:28;;;;;;;5.90;5.50;;;29.60;39.60;;;;;;5075739;28;20428;-40
2022/05/11 11:48:20;;;;;;;6.13;5.63;;;29.60;40.20;;;;;;5036282;28;20502;-43
2022/05/11 11:50:48;;;;;;;5.27;4.73;;;29.90;39.60;;;;;;5060033;28;20732;-41
2022/05/11 11:53:42;;;;;;;4.93;4.57;;;29.90;38.00;;;;;;5077852;28;20446;-43
2022/05/11 11:56:45;;;;;;;5.80;5.30;;;30.20;37.70;;;;;;5031559;28;20598;-43
2022/05/11 11:59:34;;;;;;;5.50;5.07;;;30.10;38.30;;;;;;5036383;28;20443;-43
2022/05/11 12:02:17;;;;;;;5.23;4.83;;;30.00;38.50;;;;;;5077127;28;20827;-43
2022/05/11 12:05:04;;;;;;;5.37;4.97;;;29.80;37.50;;;;;;5060886;28;20747;-40
2022/05/11 12:16:02;;;;;;;5.60;4.73;;;29.80;36.90;;;;;;5061717;28;20430;-40
2022/05/11 12:18:37;;;;;;;5.13;4.73;;;30.00;35.50;;;;;;5059309;28;20395;-41
2022/05/11 12:21:10;;;;;;;5.30;4.80;;;29.60;36.40;;;;;;5076412;28;20414;-42
2022/05/11 12:23:39;;;;;;;5.13;4.73;;;30.00;36.10;;;;;;5040572;28;20522;-40
2022/05/11 12:26:10;;;;;;;4.87;4.57;;;29.70;36.00;;;;;;5076300;28;20389;-44
2022/05/11 12:28:44;;;;;;;5.90;4.60;;;29.80;36.60;;;;;;5075391;28;20541;-40
2022/05/11 12:31:30;;;;;;;5.00;4.60;;;29.90;36.40;;;;;;5074456;28;20474;-41
2022/05/11 12:33:57;;;;;;;4.43;4.10;;;30.20;36.60;;;;;;5058533;28;20431;-43
2022/05/11 12:36:36;;;;;;;5.10;4.60;;;30.50;36.30;;;;;;5077353;28;20510;-40
2022/05/11 12:39:03;;;;;;;4.80;4.40;;;30.60;34.60;;;;;;5076589;28;20534;-42
2022/05/11 12:41:29;;;;;;;4.77;4.47;;;30.90;34.40;;;;;;5058073;28;20421;-40
2022/05/11 12:43:59;;;;;;;4.60;4.30;;;30.60;34.00;;;;;;5074040;28;20556;-43
2022/05/11 12:46:25;;;;;;;4.70;4.40;;;30.30;33.70;;;;;;5073914;28;20430;-41
2022/05/11 12:48:59;;;;;;;4.87;4.37;;;30.30;34.60;;;;;;5056307;28;20712;-42
2022/05/11 12:51:40;;;;;;;5.13;4.73;;;29.70;33.20;;;;;;5075614;28;20700;-42
2022/05/11 12:54:09;;;;;;;4.80;4.20;;;29.70;33.60;;;;;;5058421;28;20453;-43
2022/05/11 12:56:38;;;;;;;4.90;4.50;;;30.10;34.50;;;;;;5075734;28;20500;-43
2022/05/11 12:59:17;;;;;;;5.10;4.27;;;30.20;34.20;;;;;;5059129;28;20407;-45
2022/05/11 13:01:43;;;;;;;4.60;4.30;;;30.40;34.60;;;;;;5076415;28;20714;-42
2022/05/11 13:04:21;;;;;;;4.23;3.93;;;30.20;33.50;;;;;;5076326;28;20854;-43
2022/05/11 13:06:57;;;;;;;4.40;4.10;;;30.40;33.70;;;;;;5075900;28;20428;-44
2022/05/11 13:09:37;;;;;;;5.30;4.80;;;30.60;33.80;;;;;;5056784;28;20483;-42
2022/05/11 13:12:05;;;;;;;4.90;4.37;;;30.80;33.40;;;;;;5057420;28;20431;-49
2022/05/11 13:14:36;;;;;;;6.10;4.90;;;31.20;33.60;;;;;;5076104;28;20395;-42
2022/05/11 13:17:07;;;;;;;5.97;4.00;;;30.90;32.80;;;;;;5057553;28;20422;-43
2022/05/11 13:19:37;;;;;;;7.20;4.30;;;30.80;31.60;;;;;;5055792;28;20441;-41
2022/05/11 13:22:13;;;;;;;4.50;4.20;;;30.50;31.80;;;;;;5057874;28;20395;-38
2022/05/11 13:24:41;;;;;;;4.27;3.87;;;30.50;32.80;;;;;;5059429;28;20408;-39
2022/05/11 13:27:38;;;;;;;4.87;4.40;;;30.20;32.60;;;;;;5077445;28;20492;-41
2022/05/11 13:30:27;;;;;;;4.90;4.50;;;30.30;32.60;;;;;;5076107;28;20412;-39
2022/05/11 13:32:59;;;;;;;4.60;4.30;;;30.20;32.40;;;;;;5063473;28;20427;-41
2022/05/11 13:35:29;;;;;;;5.10;4.70;;;30.20;32.40;;;;;;5075227;28;21045;-39
2022/05/11 13:38:10;;;;;;;3.90;3.70;;;30.50;31.80;;;;;;5076482;28;20435;-42
2022/05/11 13:40:54;;;;;;;5.30;4.70;;;31.00;32.20;;;;;;5075490;28;20436;-43
2022/05/11 13:43:24;;;;;;;5.40;4.17;;;30.80;29.70;;;;;;5074783;28;20407;-41
2022/05/11 13:46:03;;;;;;;4.57;4.17;;;30.60;30.30;;;;;;5076940;28;20428;-43
2022/05/11 13:48:40;;;;;;;4.07;3.77;;;30.40;31.00;;;;;;5077096;28;20489;-41